Time;durP1;ratioP1;P1;durP2;ratioP2;P2;SDS_P1;SDS_P2;PMS_P1;PMS_P2;Temp;Humidity;BMP_temperature;BMP_pressure;BME280_temperature;BME280_humidity;BME280_pressure;Samples;Min_cycle;Max_cycle;Signal;HPM_P1;HPM_P2
2021/05/29 08:00:04;;;;;;;6.63;2.80;;;;;;;20.56;40.23;96827.69;5002791;28;20501;-89
2021/05/29 08:02:30;;;;;;;4.63;2.07;;;;;;;20.80;38.06;96832.56;5000732;28;20922;-90
2021/05/29 08:04:58;;;;;;;2.07;1.87;;;;;;;21.21;38.29;96841.13;5003872;28;20494;-90
2021/05/29 08:10:02;;;;;;;2.10;1.93;;;;;;;20.48;39.60;96836.19;5323750;23;20813;-90
2021/05/29 08:13:24;;;;;;;1.93;1.73;;;;;;;19.63;38.79;96846.69;5129727;23;20507;-93
2021/05/29 08:16:27;;;;;;;1.60;1.50;;;;;;;20.05;39.10;96837.63;4997237;28;20441;-94
2021/05/29 08:18:56;;;;;;;2.53;2.00;;;;;;;19.48;40.30;96836.88;5016098;28;20516;-94
2021/05/29 08:21:23;;;;;;;4.70;2.33;;;;;;;19.48;39.91;96822.47;5015834;28;20478;-94
2021/05/29 08:23:54;;;;;;;2.77;2.00;;;;;;;19.44;41.49;96833.16;5010597;28;20476;-94
2021/05/29 08:26:32;;;;;;;;;;;;;;;;;;;;;
2021/05/29 08:29:01;;;;;;;5.10;1.97;;;;;;;19.55;41.24;96833.19;5015759;28;20425;-94
2021/05/29 08:31:38;;;;;;;2.20;2.00;;;;;;;19.03;41.36;96829.84;5017115;28;20543;-95
2021/05/29 08:34:15;;;;;;;;;;;;;;;;;;;;;
2021/05/29 08:36:42;;;;;;;2.83;1.87;;;;;;;18.83;41.14;96844.91;5005457;28;20492;-94
2021/05/29 08:39:21;;;;;;;;;;;;;;;;;;;;;
2021/05/29 08:41:48;;;;;;;3.77;1.97;;;;;;;18.85;42.48;96840.31;5009167;28;20460;-93
2021/05/29 08:44:16;;;;;;;1.90;1.70;;;;;;;18.59;42.94;96838.56;5009067;28;20914;-93
2021/05/29 08:46:43;;;;;;;2.80;2.00;;;;;;;18.50;42.47;96837.31;5009990;28;20515;-91
2021/05/29 08:49:09;;;;;;;2.20;1.77;;;;;;;18.91;42.75;96840.72;5003762;28;20448;-91
2021/05/29 08:51:35;;;;;;;3.33;2.07;;;;;;;18.34;43.59;96849.88;5007461;28;20484;-92
2021/05/29 08:54:03;;;;;;;2.10;1.70;;;;;;;18.13;44.04;96842.31;5010940;28;20476;-93
2021/05/29 08:56:33;;;;;;;4.07;2.63;;;;;;;17.98;44.11;96845.34;5016271;28;20429;-93
2021/05/29 08:59:00;;;;;;;5.93;2.80;;;;;;;17.96;44.44;96850.69;5019773;28;20468;-94
2021/05/29 09:01:27;;;;;;;2.80;2.30;;;;;;;18.22;44.13;96837.41;5019996;28;20438;-92
2021/05/29 09:03:56;;;;;;;5.47;2.10;;;;;;;18.65;44.08;96855.38;5017753;28;21051;-92
2021/05/29 09:06:38;;;;;;;4.27;2.90;;;;;;;18.07;45.35;96839.16;5014372;28;20425;-94
2021/05/29 09:09:06;;;;;;;2.33;2.13;;;;;;;18.40;45.02;96835.88;5016718;28;20444;-94
2021/05/29 09:11:44;;;;;;;2.93;2.10;;;;;;;18.29;44.10;96845.44;5018246;28;20487;-94
2021/05/29 09:14:40;;;;;;;4.83;2.20;;;;;;;18.08;44.49;96834.41;5009334;28;20484;-92
2021/05/29 09:17:15;;;;;;;5.70;2.40;;;;;;;17.86;44.73;96841.78;5018853;28;20421;-92
2021/05/29 09:19:54;;;;;;;5.63;2.50;;;;;;;17.20;46.26;96837.06;5020055;28;20508;-93
2021/05/29 09:22:24;;;;;;;3.07;2.47;;;;;;;17.14;46.64;96832.59;5012716;28;20436;-92
2021/05/29 09:25:01;;;;;;;3.27;2.27;;;;;;;17.57;46.61;96833.63;5008382;28;20608;-92
2021/05/29 09:27:28;;;;;;;2.63;2.40;;;;;;;17.55;45.74;96846.41;5006650;28;20902;-92
2021/05/29 09:29:54;;;;;;;2.80;2.50;;;;;;;17.75;44.31;96838.94;5005444;28;20452;-92
2021/05/29 09:32:21;;;;;;;3.60;2.30;;;;;;;17.76;45.84;96843.13;5007517;28;20775;-91
2021/05/29 09:34:50;;;;;;;3.20;2.40;;;;;;;17.83;44.60;96858.59;5009224;28;21011;-91
2021/05/29 09:37:20;;;;;;;2.50;1.83;;;;;;;17.89;43.33;96859.75;5009752;28;20456;-91
2021/05/29 09:39:48;;;;;;;1.63;1.53;;;;;;;17.86;42.29;96849.97;5008713;28;20485;-92
2021/05/29 09:42:17;;;;;;;2.37;1.70;;;;;;;18.28;42.17;96854.19;5005716;28;20480;-92
2021/05/29 09:44:43;;;;;;;2.60;1.80;;;;;;;18.29;41.49;96847.44;5006486;28;20478;-92
2021/05/29 09:47:13;;;;;;;2.27;1.60;;;;;;;18.26;42.13;96860.25;5011886;28;20440;-88
2021/05/29 09:49:49;;;;;;;3.07;1.90;;;;;;;18.07;42.56;96857.56;5019221;28;20429;-89
2021/05/29 09:52:30;;;;;;;2.17;1.50;;;;;;;18.27;41.21;96869.16;5019898;28;20445;-88
2021/05/29 09:54:58;;;;;;;3.10;2.80;;;;;;;18.22;42.53;96849.03;5019571;28;20480;-89
2021/05/29 09:57:24;;;;;;;2.90;1.87;;;;;;;18.83;39.65;96856.56;5010767;28;20504;-91
2021/05/29 09:59:57;;;;;;;3.00;2.23;;;;;;;18.79;41.13;96863.81;5003986;28;20541;-90
2021/05/29 10:02:24;;;;;;;2.47;2.27;;;;;;;18.91;40.62;96854.38;5002894;28;20526;-89
2021/05/29 10:04:54;;;;;;;3.10;2.30;;;;;;;18.91;42.17;96848.91;5002777;28;20461;-90
2021/05/29 10:07:21;;;;;;;3.03;2.50;;;;;;;18.82;41.43;96863.38;5005476;28;20506;-90
2021/05/29 10:09:48;;;;;;;6.13;2.10;;;;;;;18.56;42.79;96867.78;5005706;28;20429;-90
2021/05/29 10:12:15;;;;;;;6.10;2.67;;;;;;;18.08;45.38;96859.72;5005532;28;20452;-91
2021/05/29 10:14:42;;;;;;;4.40;3.27;;;;;;;17.99;45.83;96859.72;5005852;28;20984;-90
2021/05/29 10:17:11;;;;;;;4.70;1.97;;;;;;;18.32;44.77;96859.94;5005606;28;20539;-90
2021/05/29 10:19:39;;;;;;;3.23;2.60;;;;;;;18.72;43.30;96854.47;5006569;28;20484;-90
2021/05/29 10:22:07;;;;;;;4.87;2.40;;;;;;;19.02;42.63;96847.53;5007852;28;20457;-89
2021/05/29 10:24:34;;;;;;;3.47;2.43;;;;;;;19.39;43.21;96853.34;5003302;28;20524;-92
2021/05/29 10:27:07;;;;;;;2.83;2.57;;;;;;;18.78;45.03;96862.38;5006167;28;20520;-92
2021/05/29 10:29:33;;;;;;;4.63;2.60;;;;;;;18.32;45.40;96865.41;5005069;28;20429;-90
2021/05/29 10:32:15;;;;;;;7.20;2.20;;;;;;;18.14;44.14;96857.41;4998235;28;20476;-91
2021/05/29 10:34:53;;;;;;;4.73;2.87;;;;;;;18.40;43.61;96853.00;5005545;28;20453;-91
2021/05/29 10:37:27;;;;;;;2.70;2.47;;;;;;;18.36;45.59;96860.19;5005808;28;20448;-90
2021/05/29 10:39:54;;;;;;;2.90;2.10;;;;;;;18.10;46.80;96856.41;5006495;28;20596;-94
2021/05/29 10:42:31;;;;;;;2.60;2.40;;;;;;;17.77;46.51;96860.91;5004746;28;20853;-92
2021/05/29 10:45:15;;;;;;;4.00;1.87;;;;;;;17.76;46.32;96854.03;5003864;28;20487;-90
2021/05/29 10:48:06;;;;;;;5.03;3.03;;;;;;;17.62;46.43;96859.22;5005213;28;20439;-92
2021/05/29 10:50:56;;;;;;;2.00;1.77;;;;;;;17.36;46.64;96860.03;5004825;28;20468;-93
2021/05/29 10:53:36;;;;;;;2.77;2.43;;;;;;;17.55;46.17;96857.34;5004029;28;20527;-91
2021/05/29 10:56:30;;;;;;;3.40;2.53;;;;;;;17.87;45.65;96862.34;5003664;28;20508;-91
2021/05/29 10:59:12;;;;;;;4.27;1.90;;;;;;;18.27;44.06;96856.22;4996148;28;20495;-90
2021/05/29 11:02:03;;;;;;;2.70;2.47;;;;;;;18.86;43.16;96849.25;5006244;28;20977;-92
2021/05/29 11:04:31;;;;;;;2.43;2.23;;;;;;;19.15;43.26;96855.22;5004956;28;20475;-91
2021/05/29 11:06:59;;;;;;;2.37;2.03;;;;;;;18.94;43.24;96852.50;5003962;28;20535;-91
2021/05/29 11:09:48;;;;;;;2.70;1.87;;;;;;;18.34;43.87;96860.06;5002521;28;20442;-90
2021/05/29 11:12:16;;;;;;;2.13;1.80;;;;;;;17.86;44.60;96847.25;5001551;28;20445;-91
2021/05/29 11:14:55;;;;;;;1.73;1.57;;;;;;;17.56;45.29;96856.06;5002281;28;20481;-92
2021/05/29 11:17:23;;;;;;;2.27;2.07;;;;;;;17.53;45.19;96860.63;5001220;28;20528;-92
2021/05/29 11:20:16;;;;;;;3.10;2.17;;;;;;;17.40;45.68;96844.69;5001164;28;20569;-91
2021/05/29 11:22:45;;;;;;;2.20;1.80;;;;;;;17.59;45.27;96852.16;4984859;28;20468;-92
2021/05/29 11:25:16;;;;;;;3.57;2.10;;;;;;;18.01;43.83;96851.69;5003480;28;20540;-92
2021/05/29 11:27:44;;;;;;;1.90;1.60;;;;;;;18.22;43.92;96843.59;5003427;28;20430;-93
2021/05/29 11:30:14;;;;;;;3.90;2.40;;;;;;;18.51;43.18;96846.25;5004717;28;20476;-93
2021/05/29 11:32:47;;;;;;;4.73;1.73;;;;;;;18.69;42.68;96847.44;5005621;28;20472;-93
2021/05/29 11:35:28;;;;;;;1.90;1.53;;;;;;;18.01;43.37;96852.38;5006570;28;20469;-92
2021/05/29 11:38:03;;;;;;;3.60;2.30;;;;;;;18.13;42.80;96852.53;5003200;28;20448;-92
2021/05/29 11:40:45;;;;;;;1.93;1.83;;;;;;;18.19;43.01;96850.94;5004343;28;20504;-94
2021/05/29 11:43:12;;;;;;;1.50;1.40;;;;;;;18.73;41.75;96845.00;4999717;28;20965;-91
2021/05/29 11:45:40;;;;;;;2.33;1.90;;;;;;;19.32;41.00;96851.53;5003007;28;20528;-93
2021/05/29 11:48:07;;;;;;;4.57;2.23;;;;;;;19.13;39.62;96846.91;5003587;28;20468;-94
2021/05/29 11:50:34;;;;;;;5.13;2.07;;;;;;;18.40;40.57;96849.56;5004568;28;20536;-93
2021/05/29 11:53:00;;;;;;;1.70;1.47;;;;;;;18.30;41.48;96837.94;5004112;28;20508;-94
2021/05/29 11:55:26;;;;;;;1.37;1.27;;;;;;;18.26;39.54;96837.69;5004372;28;20456;-93
2021/05/29 11:58:01;;;;;;;2.20;1.60;;;;;;;18.49;39.75;96833.16;5004326;28;20449;-93
2021/05/29 12:00:28;;;;;;;2.10;1.20;;;;;;;18.87;39.86;96837.69;5004873;28;20476;-91
2021/05/29 12:02:55;;;;;;;2.97;1.40;;;;;;;19.02;39.31;96842.78;5003699;28;20456;-92
2021/05/29 12:05:37;;;;;;;1.27;1.17;;;;;;;19.22;39.09;96829.69;5002859;28;20493;-92
2021/05/29 12:08:05;;;;;;;2.30;1.33;;;;;;;19.20;37.95;96840.53;5003580;28;20440;-93
2021/05/29 12:10:48;;;;;;;1.50;1.33;;;;;;;19.10;38.25;96824.19;5002637;28;20731;-93
2021/05/29 12:13:22;;;;;;;1.63;1.23;;;;;;;19.36;38.93;96829.91;5001854;28;20481;-93
2021/05/29 12:15:54;;;;;;;1.83;1.37;;;;;;;19.44;38.73;96831.16;5003406;28;20500;-93
2021/05/29 12:18:21;;;;;;;1.20;1.10;;;;;;;19.21;38.49;96836.47;5003187;28;20465;-92
2021/05/29 12:20:58;;;;;;;1.13;1.03;;;;;;;19.36;35.97;96833.31;5007335;28;20548;-90
2021/05/29 12:23:25;;;;;;;1.83;0.90;;;;;;;19.60;36.45;96828.72;5014780;28;20471;-91
2021/05/29 12:25:52;;;;;;;1.20;1.10;;;;;;;19.66;35.31;96832.53;5002122;28;20441;-90
2021/05/29 12:28:46;;;;;;;2.77;1.40;;;;;;;19.47;35.09;96838.19;4999895;28;20778;-90
2021/05/29 12:31:13;;;;;;;1.33;1.20;;;;;;;19.78;34.80;96835.31;5003485;28;20480;-92
2021/05/29 12:33:40;;;;;;;1.80;1.13;;;;;;;19.64;33.96;96845.41;5003198;28;20803;-92
2021/05/29 12:36:07;;;;;;;1.90;1.30;;;;;;;19.22;34.95;96822.22;5004513;28;20448;-92
2021/05/29 12:38:34;;;;;;;1.67;1.00;;;;;;;19.34;35.66;96844.16;5004684;28;20449;-91
2021/05/29 12:41:07;;;;;;;1.93;1.57;;;;;;;19.41;36.65;96815.91;5004937;28;20539;-91
2021/05/29 12:43:33;;;;;;;1.43;0.87;;;;;;;19.62;35.16;96826.09;5001574;28;20524;-92
2021/05/29 12:45:59;;;;;;;3.77;1.10;;;;;;;19.56;35.49;96845.59;5001553;28;20449;-92
2021/05/29 12:48:25;;;;;;;4.10;0.80;;;;;;;19.59;34.48;96835.47;5001249;28;20456;-91
2021/05/29 12:51:08;;;;;;;1.97;1.10;;;;;;;19.66;34.24;96851.72;5001377;28;20447;-92
2021/05/29 12:53:37;;;;;;;1.83;0.90;;;;;;;19.51;35.71;96834.97;5001283;28;20493;-93
2021/05/29 12:56:08;;;;;;;5.03;1.00;;;;;;;19.48;36.30;96836.88;5008943;28;20430;-91
2021/05/29 12:58:35;;;;;;;2.37;1.40;;;;;;;19.54;36.79;96842.75;5016596;28;20464;-90
2021/05/29 13:01:18;;;;;;;2.50;1.53;;;;;;;19.67;36.14;96836.69;5013881;28;20549;-90
2021/05/29 13:09:29;;;;;;;1.40;0.90;;;;;;;19.72;34.66;96832.91;5002699;28;20413;-91
2021/05/29 13:11:55;;;;;;;0.90;0.80;;;;;;;19.55;34.93;96840.69;5001909;28;20456;-92
2021/05/29 13:14:28;;;;;;;2.43;1.27;;;;;;;19.42;34.82;96846.72;5001291;28;20540;-93
2021/05/29 13:16:56;;;;;;;1.17;0.83;;;;;;;19.14;35.47;96832.63;5001714;28;20472;-93
2021/05/29 13:19:24;;;;;;;1.07;0.97;;;;;;;19.11;35.85;96835.81;5001770;28;20516;-91
2021/05/29 13:21:59;;;;;;;1.10;1.00;;;;;;;19.11;36.87;96831.06;5001353;28;20452;-91
2021/05/29 13:24:43;;;;;;;1.93;1.40;;;;;;;19.13;37.44;96831.22;5001681;28;20484;-91
2021/05/29 13:27:11;;;;;;;1.20;1.10;;;;;;;19.13;36.58;96844.88;5001184;28;20445;-94
2021/05/29 13:29:37;;;;;;;1.30;1.20;;;;;;;18.70;37.42;96833.19;5000319;28;20453;-90
2021/05/29 13:32:05;;;;;;;1.53;1.23;;;;;;;19.01;37.48;96830.44;5000037;28;20453;-90
2021/05/29 13:34:32;;;;;;;1.93;1.20;;;;;;;19.25;37.17;96834.72;4999947;28;20563;-92
2021/05/29 13:36:59;;;;;;;1.10;1.00;;;;;;;19.36;37.29;96827.16;5001667;28;20495;-92
2021/05/29 13:39:25;;;;;;;1.10;1.00;;;;;;;19.13;37.09;96835.97;5002368;28;20476;-92
2021/05/29 13:41:51;;;;;;;0.80;0.80;;;;;;;18.94;37.53;96828.59;5004763;28;20445;-90
2021/05/29 13:44:18;;;;;;;1.93;1.03;;;;;;;19.03;37.05;96825.09;5005145;28;20457;-91
2021/05/29 13:46:44;;;;;;;1.13;0.60;;;;;;;19.30;36.57;96822.00;5004378;28;20488;-91
2021/05/29 13:49:10;;;;;;;1.13;0.90;;;;;;;19.27;36.10;96828.66;5004694;28;20457;-90
2021/05/29 13:51:37;;;;;;;0.90;0.70;;;;;;;19.36;35.19;96836.06;5004804;28;20465;-93
2021/05/29 13:54:05;;;;;;;0.93;0.70;;;;;;;19.77;34.45;96825.66;5004790;28;20483;-93
2021/05/29 13:56:34;;;;;;;3.33;0.87;;;;;;;19.79;36.15;96831.28;5005104;28;20956;-91
2021/05/29 13:59:01;;;;;;;2.30;0.90;;;;;;;19.54;36.64;96833.81;5004648;28;20441;-91
2021/05/29 14:01:27;;;;;;;1.97;1.20;;;;;;;19.52;36.77;96836.41;5003771;28;20571;-90
2021/05/29 14:03:53;;;;;;;1.83;0.70;;;;;;;19.37;34.91;96853.22;5003068;28;20806;-92
2021/05/29 14:06:19;;;;;;;1.07;0.97;;;;;;;19.57;35.20;96829.88;5002380;28;20445;-92
2021/05/29 14:08:45;;;;;;;1.20;0.93;;;;;;;19.37;34.52;96837.50;5003870;28;20822;-90
2021/05/29 14:11:21;;;;;;;1.10;1.00;;;;;;;19.51;34.21;96840.47;5004726;28;20480;-93
2021/05/29 14:13:47;;;;;;;2.30;1.00;;;;;;;19.19;34.72;96841.81;5004557;28;20575;-94
2021/05/29 14:16:13;;;;;;;1.13;1.03;;;;;;;19.42;34.82;96836.47;5004254;28;20456;-93
2021/05/29 14:18:43;;;;;;;1.83;1.10;;;;;;;19.53;34.33;96848.78;5004199;28;20445;-93
2021/05/29 14:21:09;;;;;;;1.60;1.13;;;;;;;19.72;35.27;96841.13;5003475;28;20516;-91
2021/05/29 14:23:35;;;;;;;1.30;0.70;;;;;;;20.04;34.79;96842.41;5004704;28;20453;-92
2021/05/29 14:26:01;;;;;;;0.90;0.90;;;;;;;19.89;33.90;96837.34;5003470;28;20452;-92
2021/05/29 14:28:28;;;;;;;3.30;1.20;;;;;;;19.58;34.76;96831.31;5004271;28;20469;-90
2021/05/29 14:30:55;;;;;;;1.10;0.90;;;;;;;19.62;35.00;96848.00;5003585;28;20473;-91
2021/05/29 14:33:21;;;;;;;1.30;1.20;;;;;;;19.69;35.30;96839.56;5004841;28;20534;-93
2021/05/29 14:35:47;;;;;;;1.20;0.80;;;;;;;20.15;35.36;96841.00;5003990;28;20528;-93
2021/05/29 14:38:13;;;;;;;1.90;1.17;;;;;;;19.88;35.99;96846.91;5007703;28;20466;-91
2021/05/29 14:40:39;;;;;;;5.67;1.13;;;;;;;19.61;36.37;96846.56;5018759;28;20500;-91
2021/05/29 14:43:06;;;;;;;1.60;1.10;;;;;;;19.56;35.50;96839.41;5018924;28;20425;-89
2021/05/29 14:45:33;;;;;;;1.50;1.20;;;;;;;19.68;35.76;96838.13;5018909;28;20516;-90
2021/05/29 14:47:59;;;;;;;1.67;0.80;;;;;;;19.43;35.51;96853.63;5018979;28;20451;-90
2021/05/29 14:50:26;;;;;;;7.83;1.40;;;;;;;19.29;35.04;96837.00;5018012;28;20450;-90
2021/05/29 14:52:52;;;;;;;2.50;1.17;;;;;;;19.33;35.68;96845.44;5010594;28;20453;-90
2021/05/29 14:55:18;;;;;;;2.13;1.40;;;;;;;19.38;34.87;96858.09;5004082;28;20961;-90
2021/05/29 14:57:44;;;;;;;2.27;1.10;;;;;;;19.53;34.14;96851.53;5002743;28;20798;-90
2021/05/29 15:00:12;;;;;;;1.43;1.33;;;;;;;19.63;34.21;96857.66;5002173;28;20606;-91
2021/05/29 15:02:42;;;;;;;4.23;1.37;;;;;;;19.52;33.99;96855.56;5003380;28;20469;-92
2021/05/29 15:05:09;;;;;;;1.43;1.33;;;;;;;19.31;34.04;96861.75;5002765;28;20465;-92
2021/05/29 15:07:35;;;;;;;1.30;1.10;;;;;;;19.14;34.63;96857.25;5009507;28;20450;-91
2021/05/29 15:10:03;;;;;;;1.40;0.77;;;;;;;19.04;35.61;96856.63;5017367;28;20437;-91
2021/05/29 15:12:29;;;;;;;1.33;1.20;;;;;;;19.00;35.11;96855.63;5018119;28;20461;-91
2021/05/29 15:14:55;;;;;;;2.27;1.40;;;;;;;18.90;34.32;96855.69;5018783;28;20441;-91
2021/05/29 15:17:22;;;;;;;1.50;1.00;;;;;;;18.97;34.81;96856.78;5018560;28;20433;-92
2021/05/29 15:19:49;;;;;;;1.33;1.13;;;;;;;18.92;34.98;96855.81;5004781;28;20553;-93
2021/05/29 15:22:17;;;;;;;2.07;1.00;;;;;;;18.91;35.38;96856.41;5002141;28;20944;-91
2021/05/29 15:24:46;;;;;;;1.83;1.10;;;;;;;19.13;35.43;96857.84;5002799;28;20461;-91
2021/05/29 15:27:12;;;;;;;1.07;0.70;;;;;;;19.27;34.67;96848.53;5003686;28;20449;-89
2021/05/29 15:29:40;;;;;;;1.50;1.30;;;;;;;19.47;35.41;96854.59;5005115;28;20433;-93
2021/05/29 15:32:09;;;;;;;1.00;0.80;;;;;;;19.53;35.80;96844.03;5008919;28;20515;-90
2021/05/29 15:34:35;;;;;;;2.40;1.40;;;;;;;19.05;37.45;96849.81;5015035;28;20476;-91
2021/05/29 15:37:03;;;;;;;1.23;0.90;;;;;;;18.95;37.73;96846.44;5015552;28;20445;-92
2021/05/29 15:39:29;;;;;;;2.60;1.37;;;;;;;18.92;37.69;96850.31;5015306;28;20433;-90
2021/05/29 15:41:55;;;;;;;2.00;0.90;;;;;;;18.96;37.67;96850.59;5014719;28;20548;-90
2021/05/29 15:44:21;;;;;;;1.90;0.80;;;;;;;18.94;37.21;96853.22;5014987;28;20472;-92
2021/05/29 15:46:48;;;;;;;1.40;1.30;;;;;;;19.36;36.40;96841.53;5003617;28;20515;-90
2021/05/29 15:49:26;;;;;;;2.97;1.27;;;;;;;19.37;35.45;96845.72;5002208;28;20575;-90
2021/05/29 15:51:52;;;;;;;0.90;0.90;;;;;;;19.45;36.08;96857.19;5014286;28;20429;-92
2021/05/29 15:54:20;;;;;;;2.00;1.10;;;;;;;19.37;36.31;96842.25;5018056;28;20493;-92
2021/05/29 15:56:46;;;;;;;2.93;1.00;;;;;;;19.31;36.49;96856.28;5018630;28;20437;-94
2021/05/29 15:59:13;;;;;;;1.27;1.10;;;;;;;19.41;36.66;96848.03;5010189;28;20430;-92
2021/05/29 16:01:39;;;;;;;1.60;1.13;;;;;;;19.71;36.42;96847.91;5010851;28;20501;-89
2021/05/29 16:04:05;;;;;;;3.43;1.40;;;;;;;19.62;36.26;96850.72;5018059;28;20504;-90
2021/05/29 16:06:32;;;;;;;2.00;1.30;;;;;;;19.59;36.49;96857.38;5018082;28;20437;-92
2021/05/29 16:08:58;;;;;;;4.07;0.90;;;;;;;19.29;37.08;96853.44;5017710;28;20576;-90
2021/05/29 16:11:26;;;;;;;3.03;2.50;;;;;;;19.60;36.90;96858.81;5009805;28;20457;-89
2021/05/29 16:13:52;;;;;;;1.40;1.30;;;;;;;19.70;37.63;96867.69;5012409;28;20464;-93
2021/05/29 16:16:20;;;;;;;4.70;1.40;;;;;;;19.40;38.24;96857.53;5007508;28;20497;-93
2021/05/29 16:18:46;;;;;;;1.83;1.27;;;;;;;19.11;39.38;96850.22;5008835;28;20473;-89
2021/05/29 16:21:13;;;;;;;1.33;1.20;;;;;;;18.94;39.61;96855.94;5001028;28;20584;-90
2021/05/29 16:23:39;;;;;;;1.30;1.20;;;;;;;18.93;39.93;96857.25;5000023;28;20472;-92
2021/05/29 16:26:05;;;;;;;2.23;1.40;;;;;;;18.60;39.21;96868.06;5000935;28;20531;-92
2021/05/29 16:28:33;;;;;;;1.63;1.33;;;;;;;18.46;39.97;96863.63;5000490;28;20524;-92
2021/05/29 16:31:00;;;;;;;1.67;1.53;;;;;;;18.33;40.29;96864.09;5001010;28;20449;-90
2021/05/29 16:33:31;;;;;;;2.17;1.47;;;;;;;18.46;39.77;96863.63;4999537;28;20581;-90
2021/05/29 16:35:59;;;;;;;1.07;1.00;;;;;;;18.51;39.16;96859.91;5001074;28;20437;-91
2021/05/29 16:38:25;;;;;;;2.07;0.97;;;;;;;18.66;38.51;96873.22;5001601;28;20461;-91
2021/05/29 16:40:51;;;;;;;1.20;1.03;;;;;;;18.64;37.32;96856.66;5017375;28;20492;-91
2021/05/29 16:43:18;;;;;;;1.73;1.17;;;;;;;18.43;36.75;96865.50;5002418;28;20534;-91
2021/05/29 16:45:45;;;;;;;1.20;1.10;;;;;;;18.54;37.07;96869.69;4999425;28;20433;-91
2021/05/29 16:48:11;;;;;;;1.17;1.07;;;;;;;18.51;37.80;96870.84;4998943;28;20518;-94
2021/05/29 16:50:38;;;;;;;2.93;1.37;;;;;;;18.55;38.05;96873.81;5001404;28;20445;-90
2021/05/29 16:53:06;;;;;;;2.13;1.20;;;;;;;18.81;37.99;96863.94;5000568;28;20512;-91
2021/05/29 16:55:32;;;;;;;2.30;1.27;;;;;;;18.81;37.64;96864.66;5000253;28;20456;-90
2021/05/29 16:57:58;;;;;;;2.40;1.60;;;;;;;19.00;37.78;96856.34;4998363;28;20469;-90
2021/05/29 17:00:25;;;;;;;2.27;1.60;;;;;;;19.06;37.10;96859.47;4999226;28;20489;-92
2021/05/29 17:02:52;;;;;;;4.70;1.70;;;;;;;18.99;37.85;96856.91;4998898;28;20445;-92
2021/05/29 17:05:18;;;;;;;2.80;0.77;;;;;;;18.92;37.61;96866.06;4999327;28;20465;-90
2021/05/29 17:07:47;;;;;;;1.30;1.20;;;;;;;18.95;37.61;96856.66;4997627;28;20531;-91
2021/05/29 17:10:13;;;;;;;5.60;1.10;;;;;;;19.06;37.94;96856.03;4998687;28;20483;-91
2021/05/29 17:12:39;;;;;;;1.53;1.43;;;;;;;19.01;37.89;96852.31;4997877;28;20520;-91
2021/05/29 17:15:07;;;;;;;4.93;1.50;;;;;;;19.04;38.09;96862.09;5000218;28;20492;-90
2021/05/29 17:17:33;;;;;;;1.03;0.90;;;;;;;18.96;38.30;96855.34;5002638;28;20508;-91
2021/05/29 17:20:00;;;;;;;5.03;1.27;;;;;;;18.69;39.01;96866.59;5001560;28;20495;-91
2021/05/29 17:22:26;;;;;;;3.23;1.20;;;;;;;18.52;39.23;96864.78;5001532;28;20869;-90
2021/05/29 17:24:52;;;;;;;1.43;1.20;;;;;;;18.51;39.48;96862.63;5001578;28;20536;-92
2021/05/29 17:27:18;;;;;;;1.43;1.30;;;;;;;18.35;38.64;96866.97;5001830;28;20476;-92
2021/05/29 17:29:44;;;;;;;1.37;1.27;;;;;;;18.37;38.25;96862.38;5001679;28;20583;-92
2021/05/29 17:32:11;;;;;;;1.10;1.00;;;;;;;18.16;37.79;96859.56;5003622;28;20457;-91
2021/05/29 17:34:37;;;;;;;1.67;1.57;;;;;;;18.05;37.76;96860.88;5005096;28;20472;-92
2021/05/29 17:37:04;;;;;;;4.73;1.30;;;;;;;18.04;38.52;96861.47;5004390;28;20444;-92
2021/05/29 17:39:30;;;;;;;1.60;1.50;;;;;;;18.07;38.28;96866.47;5006944;28;20528;-93
2021/05/29 17:41:56;;;;;;;4.70;2.03;;;;;;;18.22;38.90;96865.44;5003555;28;20841;-90
2021/05/29 17:44:22;;;;;;;1.30;1.10;;;;;;;18.15;38.10;96858.13;5001805;28;20468;-91
2021/05/29 17:46:51;;;;;;;1.70;1.20;;;;;;;18.14;38.31;96856.66;5002862;28;21020;-90
2021/05/29 17:49:17;;;;;;;1.90;1.40;;;;;;;18.00;38.78;96859.16;5001474;28;20957;-92
2021/05/29 17:51:44;;;;;;;1.17;1.07;;;;;;;18.00;38.96;96858.44;5001187;28;20536;-91
2021/05/29 17:54:11;;;;;;;7.10;1.57;;;;;;;18.07;39.35;96855.53;5002087;28;20520;-91
2021/05/29 17:56:37;;;;;;;1.23;1.13;;;;;;;18.07;39.98;96860.31;5000615;28;20448;-92
2021/05/29 18:01:48;;;;;;;4.10;1.17;;;;;;;17.82;40.59;96857.19;5001999;28;20524;-92
2021/05/29 18:04:14;;;;;;;1.43;1.20;;;;;;;17.72;41.20;96859.19;5002752;28;20469;-92
2021/05/29 18:06:40;;;;;;;2.60;1.43;;;;;;;17.66;40.91;96864.97;5001848;28;20459;-92
2021/05/29 18:09:06;;;;;;;1.67;1.47;;;;;;;17.57;40.58;96862.94;5000325;28;20544;-92
2021/05/29 18:11:33;;;;;;;2.97;1.50;;;;;;;17.43;40.83;96862.63;5000643;28;20452;-92
2021/05/29 18:14:00;;;;;;;2.10;1.50;;;;;;;17.53;41.00;96863.34;5001892;28;20544;-91
2021/05/29 18:16:26;;;;;;;1.77;1.43;;;;;;;17.50;41.40;96859.03;4999812;28;20524;-91
2021/05/29 18:18:52;;;;;;;1.90;1.40;;;;;;;17.53;41.35;96862.63;4999812;28;20445;-91
2021/05/29 18:21:19;;;;;;;1.93;1.00;;;;;;;17.43;41.68;96872.81;4998387;28;20480;-90
2021/05/29 18:23:45;;;;;;;2.97;2.63;;;;;;;17.51;42.07;96873.41;5001637;28;20469;-93
2021/05/29 18:26:11;;;;;;;1.30;1.20;;;;;;;17.41;41.76;96872.69;5000965;28;20856;-90
2021/05/29 18:28:39;;;;;;;2.93;1.20;;;;;;;17.37;41.99;96881.28;4999877;28;20512;-89
2021/05/29 18:31:06;;;;;;;3.07;1.37;;;;;;;17.25;42.09;96872.25;4999382;28;20529;-90
2021/05/29 18:33:38;;;;;;;1.27;0.93;;;;;;;17.14;42.67;96864.59;4999373;28;20453;-92
2021/05/29 18:36:11;;;;;;;2.10;1.43;;;;;;;17.13;42.64;96866.59;5000615;28;20444;-91
2021/05/29 18:41:21;;;;;;;1.20;1.10;;;;;;;16.96;42.82;96876.91;5000288;28;20527;-91
2021/05/29 18:43:49;;;;;;;2.07;1.47;;;;;;;16.93;43.20;96869.88;5001515;28;20508;-92
2021/05/29 18:46:15;;;;;;;1.67;1.17;;;;;;;16.85;43.28;96863.84;5001710;28;20446;-90
2021/05/29 18:48:41;;;;;;;3.63;1.40;;;;;;;16.83;42.87;96880.03;5001426;28;20540;-91
2021/05/29 18:51:12;;;;;;;1.37;1.00;;;;;;;16.79;43.30;96874.28;5001814;28;20536;-93
2021/05/29 18:53:38;;;;;;;1.27;1.17;;;;;;;16.76;43.25;96878.16;5001844;28;20499;-93
2021/05/29 18:56:05;;;;;;;3.43;1.50;;;;;;;16.71;43.69;96877.13;5000874;28;20488;-93
2021/05/29 18:58:34;;;;;;;2.13;1.40;;;;;;;16.63;43.98;96876.53;5002280;28;20549;-93
2021/05/29 19:03:48;;;;;;;2.80;2.03;;;;;;;16.62;44.16;96874.38;5011246;28;20496;-91
2021/05/29 19:06:23;;;;;;;3.77;2.63;;;;;;;16.49;44.52;96887.06;4998879;28;20453;-90
2021/05/29 19:09:08;;;;;;;2.47;1.80;;;;;;;16.37;44.76;96882.69;5000316;28;20906;-90
2021/05/29 19:11:36;;;;;;;1.80;1.60;;;;;;;16.27;45.01;96888.09;4999524;28;20930;-92
2021/05/29 19:14:03;;;;;;;3.03;1.90;;;;;;;16.20;45.64;96891.63;4999556;28;20600;-92
2021/05/29 19:16:30;;;;;;;2.70;2.00;;;;;;;16.22;45.56;96891.09;5000141;28;20433;-93
2021/05/29 19:18:56;;;;;;;2.50;1.53;;;;;;;16.08;46.06;96894.16;5001088;28;20528;-93
2021/05/29 19:21:23;;;;;;;3.53;1.50;;;;;;;16.02;46.20;96901.84;5000521;28;20587;-91
2021/05/29 19:23:59;;;;;;;3.70;1.60;;;;;;;16.03;46.30;96902.56;5000158;28;20552;-92
2021/05/29 19:26:49;;;;;;;3.70;1.70;;;;;;;16.00;46.50;96904.44;5001049;28;20444;-92
2021/05/29 19:29:15;;;;;;;3.60;1.70;;;;;;;15.90;46.88;96900.91;4999323;28;20461;-93
2021/05/29 19:31:50;;;;;;;4.07;2.30;;;;;;;15.89;46.90;96902.19;5000268;28;20437;-90
2021/05/29 19:39:49;;;;;;;3.17;1.40;;;;;;;15.57;47.93;96910.53;5000611;28;20421;-93
2021/05/29 19:42:18;;;;;;;3.30;1.97;;;;;;;15.50;48.39;96916.78;4998964;28;20655;-90
2021/05/29 19:44:50;;;;;;;1.70;1.40;;;;;;;15.43;48.46;96915.56;4998612;28;21014;-90
2021/05/29 20:06:48;;;;;;;3.03;1.97;;;;;;;15.20;49.67;96942.22;4998494;28;20437;-93
2021/05/29 20:25:51;;;;;;;3.73;1.70;;;;;;;15.06;48.83;96943.06;4994864;28;20465;-93
2021/05/29 20:28:17;;;;;;;2.07;1.60;;;;;;;15.11;48.77;96945.56;4998850;28;20478;-91
2021/05/29 20:30:44;;;;;;;2.00;1.20;;;;;;;15.04;48.79;96951.78;4997815;28;20879;-90
2021/05/29 20:33:10;;;;;;;3.03;1.67;;;;;;;14.96;49.13;96951.13;4997013;28;20448;-90
2021/05/29 20:35:38;;;;;;;3.40;1.80;;;;;;;15.01;49.25;96948.16;4997652;28;20508;-90
2021/05/29 20:38:05;;;;;;;2.17;1.40;;;;;;;14.97;48.98;96941.69;4997015;28;20519;-91
2021/05/29 20:40:31;;;;;;;2.30;1.40;;;;;;;14.96;49.10;96951.84;4997505;28;20521;-91
2021/05/29 20:43:00;;;;;;;1.40;1.30;;;;;;;14.93;49.27;96947.53;4997205;28;20445;-92
2021/05/29 20:45:30;;;;;;;1.73;1.60;;;;;;;14.86;49.54;96948.28;4997626;28;20827;-92